Archival Weather

Luke Afb

Glendale, Arizona (KLUF)

Report from: Friday, April 19, 2024 11:55 AM MST
Current time: Monday, June 24, 2024 3:45 AM MST

Current weather – Weather history – Daily summaries
Weather forecast

Temperature29.7°C (85.5°F)
Heat index27.9°C (82.2°F)
Dew point-5.2°C (22.6°F)
Winds 6 kts (3.1 m/s, 6.9 mph) South-Southeast (160°)
Visibility10 mi. (16.1 km)
Clouds Sky clear
Altimeter29.83 in.Hg (1010 mB)
Relative humidity10 %
Density altitude1,904 ft. (580 m)
Sea-level pressure100.9 kPa (1009 mB, 29.79 in.Hg)
Remarks Fully automated report
System requires maintenance
Automated weather observing station with precipitation discriminator
Flight conditions Visual Meteorological Conditions
Raw dataKLUF 191855Z AUTO 16006KT 10SM CLR 30/M05 A2983 RMK AO2 SLP089 T02971052 $
An error has occurred. This application may no longer respond until reloaded. Reload 🗙